sensor_id;sensor_type;location;lat;lon;timestamp;P1;durP1;ratioP1;P2;durP2;ratioP2
1224;SDS011;602;48.000;7.840;2023-03-03T00:00:45;12.23;;;5.17;;
1224;SDS011;602;48.000;7.840;2023-03-03T00:03:15;5.50;;;3.83;;
1224;SDS011;602;48.000;7.840;2023-03-03T00:05:44;4.10;;;2.60;;
1224;SDS011;602;48.000;7.840;2023-03-03T00:08:11;5.83;;;3.10;;
1224;SDS011;602;48.000;7.840;2023-03-03T00:10:38;6.00;;;3.43;;
1224;SDS011;602;48.000;7.840;2023-03-03T00:13:05;8.20;;;3.60;;
1224;SDS011;602;48.000;7.840;2023-03-03T00:15:40;4.23;;;3.53;;
1224;SDS011;602;48.000;7.840;2023-03-03T00:18:12;2.73;;;2.30;;
1224;SDS011;602;48.000;7.840;2023-03-03T00:20:48;8.20;;;3.23;;
1224;SDS011;602;48.000;7.840;2023-03-03T00:23:19;7.27;;;4.67;;
1224;SDS011;602;48.000;7.840;2023-03-03T00:25:56;4.93;;;3.40;;
1224;SDS011;602;48.000;7.840;2023-03-03T00:28:26;7.53;;;3.70;;
1224;SDS011;602;48.000;7.840;2023-03-03T00:30:55;8.20;;;4.67;;
1224;SDS011;602;48.000;7.840;2023-03-03T00:33:26;9.17;;;3.80;;
1224;SDS011;602;48.000;7.840;2023-03-03T00:35:58;8.67;;;2.27;;
1224;SDS011;602;48.000;7.840;2023-03-03T00:38:47;4.80;;;2.83;;
1224;SDS011;602;48.000;7.840;2023-03-03T00:41:15;5.30;;;3.73;;
1224;SDS011;602;48.000;7.840;2023-03-03T00:43:48;10.53;;;4.43;;
1224;SDS011;602;48.000;7.840;2023-03-03T00:46:16;6.50;;;4.03;;
1224;SDS011;602;48.000;7.840;2023-03-03T00:48:47;5.57;;;3.97;;
1224;SDS011;602;48.000;7.840;2023-03-03T00:51:23;5.17;;;3.33;;
1224;SDS011;602;48.000;7.840;2023-03-03T00:53:54;7.90;;;3.27;;
1224;SDS011;602;48.000;7.840;2023-03-03T00:56:21;13.10;;;4.30;;
1224;SDS011;602;48.000;7.840;2023-03-03T00:58:49;15.63;;;4.10;;
1224;SDS011;602;48.000;7.840;2023-03-03T01:01:16;7.60;;;3.00;;
1224;SDS011;602;48.000;7.840;2023-03-03T01:03:43;12.60;;;3.73;;
1224;SDS011;602;48.000;7.840;2023-03-03T01:06:11;7.63;;;4.03;;
1224;SDS011;602;48.000;7.840;2023-03-03T01:08:39;4.30;;;3.03;;
1224;SDS011;602;48.000;7.840;2023-03-03T01:11:06;7.00;;;3.87;;
1224;SDS011;602;48.000;7.840;2023-03-03T01:13:40;7.97;;;3.07;;
1224;SDS011;602;48.000;7.840;2023-03-03T01:16:09;5.13;;;3.60;;
1224;SDS011;602;48.000;7.840;2023-03-03T01:18:36;6.03;;;4.80;;
1224;SDS011;602;48.000;7.840;2023-03-03T01:21:06;6.20;;;2.77;;
1224;SDS011;602;48.000;7.840;2023-03-03T01:23:35;4.30;;;2.40;;
1224;SDS011;602;48.000;7.840;2023-03-03T01:26:02;9.03;;;3.77;;
1224;SDS011;602;48.000;7.840;2023-03-03T01:28:31;5.10;;;3.33;;
1224;SDS011;602;48.000;7.840;2023-03-03T01:30:59;5.87;;;3.57;;
1224;SDS011;602;48.000;7.840;2023-03-03T01:33:26;10.40;;;3.80;;
1224;SDS011;602;48.000;7.840;2023-03-03T01:35:53;7.27;;;4.60;;
1224;SDS011;602;48.000;7.840;2023-03-03T01:38:20;7.40;;;4.57;;
1224;SDS011;602;48.000;7.840;2023-03-03T01:40:52;8.37;;;4.17;;
1224;SDS011;602;48.000;7.840;2023-03-03T01:43:20;9.77;;;4.40;;
1224;SDS011;602;48.000;7.840;2023-03-03T01:49:03;6.63;;;2.07;;
1224;SDS011;602;48.000;7.840;2023-03-03T01:51:36;6.70;;;5.30;;
1224;SDS011;602;48.000;7.840;2023-03-03T01:54:09;4.40;;;1.90;;
1224;SDS011;602;48.000;7.840;2023-03-03T01:56:42;4.70;;;2.10;;
1224;SDS011;602;48.000;7.840;2023-03-03T01:59:10;6.77;;;2.90;;
1224;SDS011;602;48.000;7.840;2023-03-03T02:01:41;16.43;;;4.87;;
1224;SDS011;602;48.000;7.840;2023-03-03T02:04:08;16.77;;;4.47;;
1224;SDS011;602;48.000;7.840;2023-03-03T02:06:35;10.43;;;3.10;;
1224;SDS011;602;48.000;7.840;2023-03-03T02:09:08;5.73;;;3.10;;
1224;SDS011;602;48.000;7.840;2023-03-03T02:11:40;6.03;;;3.00;;
1224;SDS011;602;48.000;7.840;2023-03-03T02:14:12;3.40;;;3.10;;
1224;SDS011;602;48.000;7.840;2023-03-03T02:16:39;5.70;;;3.07;;
1224;SDS011;602;48.000;7.840;2023-03-03T02:19:08;11.83;;;5.20;;
1224;SDS011;602;48.000;7.840;2023-03-03T02:21:42;4.57;;;2.50;;
1224;SDS011;602;48.000;7.840;2023-03-03T02:24:12;10.37;;;3.00;;
1224;SDS011;602;48.000;7.840;2023-03-03T02:26:48;14.83;;;4.27;;
1224;SDS011;602;48.000;7.840;2023-03-03T02:29:16;3.10;;;2.53;;
1224;SDS011;602;48.000;7.840;2023-03-03T02:31:43;3.43;;;2.37;;
1224;SDS011;602;48.000;7.840;2023-03-03T02:36:43;6.50;;;3.83;;
1224;SDS011;602;48.000;7.840;2023-03-03T02:39:11;6.37;;;5.10;;
1224;SDS011;602;48.000;7.840;2023-03-03T02:41:44;6.87;;;2.10;;
1224;SDS011;602;48.000;7.840;2023-03-03T02:44:16;3.33;;;2.90;;
1224;SDS011;602;48.000;7.840;2023-03-03T02:46:44;5.37;;;4.57;;
1224;SDS011;602;48.000;7.840;2023-03-03T02:49:13;5.87;;;3.43;;
1224;SDS011;602;48.000;7.840;2023-03-03T02:51:41;3.90;;;3.30;;
1224;SDS011;602;48.000;7.840;2023-03-03T02:54:08;12.87;;;4.50;;
1224;SDS011;602;48.000;7.840;2023-03-03T02:56:37;3.40;;;1.87;;
1224;SDS011;602;48.000;7.840;2023-03-03T02:59:04;6.40;;;2.07;;
1224;SDS011;602;48.000;7.840;2023-03-03T03:01:33;6.03;;;3.63;;
1224;SDS011;602;48.000;7.840;2023-03-03T03:04:01;16.90;;;3.33;;
1224;SDS011;602;48.000;7.840;2023-03-03T03:06:30;6.90;;;2.80;;
1224;SDS011;602;48.000;7.840;2023-03-03T03:08:57;5.60;;;3.20;;
1224;SDS011;602;48.000;7.840;2023-03-03T03:11:24;7.40;;;2.10;;
1224;SDS011;602;48.000;7.840;2023-03-03T03:13:51;2.07;;;1.87;;
1224;SDS011;602;48.000;7.840;2023-03-03T03:16:18;8.07;;;4.27;;
1224;SDS011;602;48.000;7.840;2023-03-03T03:18:47;6.63;;;2.03;;
1224;SDS011;602;48.000;7.840;2023-03-03T03:21:14;4.87;;;3.40;;
1224;SDS011;602;48.000;7.840;2023-03-03T03:23:42;9.27;;;3.37;;
1224;SDS011;602;48.000;7.840;2023-03-03T03:26:09;10.83;;;2.67;;
1224;SDS011;602;48.000;7.840;2023-03-03T03:28:36;10.50;;;2.53;;
1224;SDS011;602;48.000;7.840;2023-03-03T03:31:04;5.93;;;2.73;;
1224;SDS011;602;48.000;7.840;2023-03-03T03:33:32;1.97;;;1.40;;
1224;SDS011;602;48.000;7.840;2023-03-03T03:36:01;4.93;;;2.40;;
1224;SDS011;602;48.000;7.840;2023-03-03T03:38:30;18.57;;;3.50;;
1224;SDS011;602;48.000;7.840;2023-03-03T03:40:58;7.37;;;4.10;;
1224;SDS011;602;48.000;7.840;2023-03-03T03:43:26;12.83;;;3.20;;
1224;SDS011;602;48.000;7.840;2023-03-03T03:45:53;12.00;;;3.37;;
1224;SDS011;602;48.000;7.840;2023-03-03T03:48:20;4.90;;;2.07;;
1224;SDS011;602;48.000;7.840;2023-03-03T03:50:47;2.27;;;2.10;;
1224;SDS011;602;48.000;7.840;2023-03-03T03:53:16;4.30;;;3.20;;
1224;SDS011;602;48.000;7.840;2023-03-03T03:55:43;8.30;;;3.27;;
1224;SDS011;602;48.000;7.840;2023-03-03T03:58:11;5.80;;;2.60;;
1224;SDS011;602;48.000;7.840;2023-03-03T04:00:39;8.50;;;3.63;;
1224;SDS011;602;48.000;7.840;2023-03-03T04:03:06;6.23;;;2.67;;
1224;SDS011;602;48.000;7.840;2023-03-03T04:05:33;12.10;;;3.27;;
1224;SDS011;602;48.000;7.840;2023-03-03T04:08:00;19.03;;;5.20;;
1224;SDS011;602;48.000;7.840;2023-03-03T04:10:28;5.53;;;2.77;;
1224;SDS011;602;48.000;7.840;2023-03-03T04:12:55;7.77;;;4.50;;
1224;SDS011;602;48.000;7.840;2023-03-03T04:15:22;8.67;;;4.73;;
1224;SDS011;602;48.000;7.840;2023-03-03T04:17:49;5.40;;;5.00;;
1224;SDS011;602;48.000;7.840;2023-03-03T04:20:16;15.73;;;3.87;;
1224;SDS011;602;48.000;7.840;2023-03-03T04:22:43;10.53;;;4.40;;
1224;SDS011;602;48.000;7.840;2023-03-03T04:25:10;4.40;;;2.47;;
1224;SDS011;602;48.000;7.840;2023-03-03T04:27:41;4.50;;;3.27;;
1224;SDS011;602;48.000;7.840;2023-03-03T04:30:12;3.67;;;2.60;;
1224;SDS011;602;48.000;7.840;2023-03-03T04:32:40;8.13;;;3.67;;
1224;SDS011;602;48.000;7.840;2023-03-03T04:35:08;5.90;;;3.67;;
1224;SDS011;602;48.000;7.840;2023-03-03T04:37:36;4.00;;;2.93;;
1224;SDS011;602;48.000;7.840;2023-03-03T04:40:04;11.00;;;4.33;;
1224;SDS011;602;48.000;7.840;2023-03-03T04:42:34;9.73;;;4.50;;
1224;SDS011;602;48.000;7.840;2023-03-03T04:45:03;7.50;;;2.60;;
1224;SDS011;602;48.000;7.840;2023-03-03T04:47:30;8.07;;;4.13;;
1224;SDS011;602;48.000;7.840;2023-03-03T04:49:57;5.53;;;1.73;;
1224;SDS011;602;48.000;7.840;2023-03-03T04:52:24;4.63;;;3.40;;
1224;SDS011;602;48.000;7.840;2023-03-03T04:54:51;5.87;;;3.73;;
1224;SDS011;602;48.000;7.840;2023-03-03T04:57:18;11.17;;;5.20;;
1224;SDS011;602;48.000;7.840;2023-03-03T04:59:45;6.77;;;4.40;;
1224;SDS011;602;48.000;7.840;2023-03-03T05:02:13;3.30;;;2.70;;
1224;SDS011;602;48.000;7.840;2023-03-03T05:04:40;4.67;;;3.07;;
1224;SDS011;602;48.000;7.840;2023-03-03T05:07:07;6.73;;;5.30;;
1224;SDS011;602;48.000;7.840;2023-03-03T05:09:34;2.97;;;2.67;;
1224;SDS011;602;48.000;7.840;2023-03-03T05:12:02;3.87;;;3.57;;
1224;SDS011;602;48.000;7.840;2023-03-03T05:14:29;4.17;;;2.63;;
1224;SDS011;602;48.000;7.840;2023-03-03T05:16:56;6.97;;;3.27;;
1224;SDS011;602;48.000;7.840;2023-03-03T05:19:24;3.00;;;2.73;;
1224;SDS011;602;48.000;7.840;2023-03-03T05:21:52;2.77;;;2.03;;
1224;SDS011;602;48.000;7.840;2023-03-03T05:24:19;10.37;;;3.27;;
1224;SDS011;602;48.000;7.840;2023-03-03T05:26:46;11.80;;;5.27;;
1224;SDS011;602;48.000;7.840;2023-03-03T05:29:13;11.60;;;4.70;;
1224;SDS011;602;48.000;7.840;2023-03-03T05:31:40;9.27;;;3.50;;
1224;SDS011;602;48.000;7.840;2023-03-03T05:34:07;4.47;;;3.57;;
1224;SDS011;602;48.000;7.840;2023-03-03T05:36:35;4.57;;;3.40;;
1224;SDS011;602;48.000;7.840;2023-03-03T05:39:02;15.00;;;3.63;;
1224;SDS011;602;48.000;7.840;2023-03-03T05:41:29;7.13;;;5.47;;
1224;SDS011;602;48.000;7.840;2023-03-03T05:43:56;4.47;;;3.37;;
1224;SDS011;602;48.000;7.840;2023-03-03T05:46:23;12.20;;;3.27;;
1224;SDS011;602;48.000;7.840;2023-03-03T05:48:50;6.20;;;2.97;;
1224;SDS011;602;48.000;7.840;2023-03-03T05:51:16;9.20;;;2.97;;
1224;SDS011;602;48.000;7.840;2023-03-03T05:53:45;7.80;;;4.53;;
1224;SDS011;602;48.000;7.840;2023-03-03T05:56:12;5.30;;;3.40;;
1224;SDS011;602;48.000;7.840;2023-03-03T05:58:39;8.57;;;3.67;;
1224;SDS011;602;48.000;7.840;2023-03-03T06:01:05;3.90;;;2.60;;
1224;SDS011;602;48.000;7.840;2023-03-03T06:03:32;8.33;;;4.10;;
1224;SDS011;602;48.000;7.840;2023-03-03T06:05:59;6.57;;;2.93;;
1224;SDS011;602;48.000;7.840;2023-03-03T06:08:26;19.67;;;4.60;;
1224;SDS011;602;48.000;7.840;2023-03-03T06:10:56;7.83;;;4.13;;
1224;SDS011;602;48.000;7.840;2023-03-03T06:13:22;5.97;;;2.57;;
1224;SDS011;602;48.000;7.840;2023-03-03T06:15:49;4.57;;;2.80;;
1224;SDS011;602;48.000;7.840;2023-03-03T06:18:16;7.20;;;2.30;;
1224;SDS011;602;48.000;7.840;2023-03-03T06:20:43;9.07;;;3.53;;
1224;SDS011;602;48.000;7.840;2023-03-03T06:23:10;9.40;;;5.10;;
1224;SDS011;602;48.000;7.840;2023-03-03T06:25:37;8.83;;;3.40;;
1224;SDS011;602;48.000;7.840;2023-03-03T06:28:06;8.57;;;3.40;;
1224;SDS011;602;48.000;7.840;2023-03-03T06:30:32;11.73;;;4.53;;
1224;SDS011;602;48.000;7.840;2023-03-03T06:32:59;4.83;;;2.90;;
1224;SDS011;602;48.000;7.840;2023-03-03T06:35:26;24.47;;;7.07;;
1224;SDS011;602;48.000;7.840;2023-03-03T06:37:53;8.33;;;3.93;;
1224;SDS011;602;48.000;7.840;2023-03-03T06:40:20;9.73;;;4.93;;
1224;SDS011;602;48.000;7.840;2023-03-03T06:42:47;8.57;;;3.80;;
1224;SDS011;602;48.000;7.840;2023-03-03T06:45:15;5.70;;;2.63;;
1224;SDS011;602;48.000;7.840;2023-03-03T06:47:42;14.33;;;4.57;;
1224;SDS011;602;48.000;7.840;2023-03-03T06:50:09;12.00;;;5.10;;
1224;SDS011;602;48.000;7.840;2023-03-03T06:52:37;11.87;;;4.17;;
1224;SDS011;602;48.000;7.840;2023-03-03T06:55:09;9.47;;;5.57;;
1224;SDS011;602;48.000;7.840;2023-03-03T06:57:38;20.50;;;6.53;;
1224;SDS011;602;48.000;7.840;2023-03-03T07:00:13;12.37;;;4.43;;
1224;SDS011;602;48.000;7.840;2023-03-03T07:02:45;5.70;;;2.67;;
1224;SDS011;602;48.000;7.840;2023-03-03T07:05:13;8.10;;;5.20;;
1224;SDS011;602;48.000;7.840;2023-03-03T07:07:42;6.43;;;4.57;;
1224;SDS011;602;48.000;7.840;2023-03-03T07:10:17;11.03;;;2.50;;
1224;SDS011;602;48.000;7.840;2023-03-03T07:12:48;9.07;;;4.70;;
1224;SDS011;602;48.000;7.840;2023-03-03T07:15:17;6.50;;;4.00;;
1224;SDS011;602;48.000;7.840;2023-03-03T07:17:47;8.47;;;4.37;;
1224;SDS011;602;48.000;7.840;2023-03-03T07:20:17;17.47;;;5.37;;
1224;SDS011;602;48.000;7.840;2023-03-03T07:22:45;10.97;;;4.80;;
1224;SDS011;602;48.000;7.840;2023-03-03T07:25:18;16.40;;;4.20;;
1224;SDS011;602;48.000;7.840;2023-03-03T07:27:50;17.40;;;4.63;;
1224;SDS011;602;48.000;7.840;2023-03-03T07:30:27;6.47;;;4.50;;
1224;SDS011;602;48.000;7.840;2023-03-03T07:32:55;8.10;;;4.40;;
1224;SDS011;602;48.000;7.840;2023-03-03T07:35:28;15.40;;;6.63;;
1224;SDS011;602;48.000;7.840;2023-03-03T07:38:03;24.17;;;10.77;;
1224;SDS011;602;48.000;7.840;2023-03-03T07:40:43;20.57;;;7.33;;
1224;SDS011;602;48.000;7.840;2023-03-03T07:43:15;10.97;;;4.47;;
1224;SDS011;602;48.000;7.840;2023-03-03T07:46:02;11.83;;;5.40;;
1224;SDS011;602;48.000;7.840;2023-03-03T07:48:45;9.00;;;5.20;;
1224;SDS011;602;48.000;7.840;2023-03-03T07:51:15;9.97;;;4.90;;
1224;SDS011;602;48.000;7.840;2023-03-03T07:53:46;26.17;;;9.77;;
1224;SDS011;602;48.000;7.840;2023-03-03T07:56:15;13.10;;;6.10;;
1224;SDS011;602;48.000;7.840;2023-03-03T07:58:47;7.47;;;3.40;;
1224;SDS011;602;48.000;7.840;2023-03-03T08:01:24;13.03;;;6.00;;
1224;SDS011;602;48.000;7.840;2023-03-03T08:03:56;8.83;;;5.37;;
1224;SDS011;602;48.000;7.840;2023-03-03T08:15:14;11.40;;;5.10;;
1224;SDS011;602;48.000;7.840;2023-03-03T08:17:46;10.43;;;7.50;;
1224;SDS011;602;48.000;7.840;2023-03-03T08:23:14;14.97;;;4.57;;
1224;SDS011;602;48.000;7.840;2023-03-03T08:25:43;7.40;;;3.27;;
1224;SDS011;602;48.000;7.840;2023-03-03T08:28:10;23.47;;;6.80;;
1224;SDS011;602;48.000;7.840;2023-03-03T08:30:38;16.80;;;6.13;;
1224;SDS011;602;48.000;7.840;2023-03-03T08:33:06;11.80;;;4.40;;
1224;SDS011;602;48.000;7.840;2023-03-03T08:35:33;11.27;;;5.40;;
1224;SDS011;602;48.000;7.840;2023-03-03T08:38:00;9.50;;;4.10;;
1224;SDS011;602;48.000;7.840;2023-03-03T08:40:27;22.03;;;6.10;;
1224;SDS011;602;48.000;7.840;2023-03-03T08:42:54;13.17;;;7.17;;
1224;SDS011;602;48.000;7.840;2023-03-03T08:45:22;17.63;;;7.37;;
1224;SDS011;602;48.000;7.840;2023-03-03T08:47:49;13.70;;;5.37;;
1224;SDS011;602;48.000;7.840;2023-03-03T08:50:17;12.40;;;6.90;;
1224;SDS011;602;48.000;7.840;2023-03-03T08:52:45;9.23;;;5.10;;
1224;SDS011;602;48.000;7.840;2023-03-03T08:55:12;14.13;;;6.17;;
1224;SDS011;602;48.000;7.840;2023-03-03T08:57:39;10.43;;;5.17;;
1224;SDS011;602;48.000;7.840;2023-03-03T09:00:08;11.30;;;6.10;;
1224;SDS011;602;48.000;7.840;2023-03-03T09:02:36;17.50;;;6.80;;
1224;SDS011;602;48.000;7.840;2023-03-03T09:05:03;9.17;;;5.20;;
1224;SDS011;602;48.000;7.840;2023-03-03T09:07:32;9.20;;;4.60;;
1224;SDS011;602;48.000;7.840;2023-03-03T09:09:59;8.00;;;4.83;;
1224;SDS011;602;48.000;7.840;2023-03-03T09:12:28;15.83;;;5.13;;
1224;SDS011;602;48.000;7.840;2023-03-03T09:14:59;13.53;;;5.00;;
1224;SDS011;602;48.000;7.840;2023-03-03T09:17:33;9.17;;;5.47;;
1224;SDS011;602;48.000;7.840;2023-03-03T09:20:16;7.87;;;5.37;;
1224;SDS011;602;48.000;7.840;2023-03-03T09:22:50;15.03;;;6.10;;
1224;SDS011;602;48.000;7.840;2023-03-03T09:25:19;15.93;;;7.10;;
1224;SDS011;602;48.000;7.840;2023-03-03T09:27:57;16.73;;;5.37;;
1224;SDS011;602;48.000;7.840;2023-03-03T09:30:36;7.40;;;4.63;;
1224;SDS011;602;48.000;7.840;2023-03-03T09:33:18;8.30;;;5.70;;
1224;SDS011;602;48.000;7.840;2023-03-03T09:35:49;12.50;;;6.00;;
1224;SDS011;602;48.000;7.840;2023-03-03T09:38:25;13.70;;;5.80;;
1224;SDS011;602;48.000;7.840;2023-03-03T09:41:05;9.60;;;5.47;;
1224;SDS011;602;48.000;7.840;2023-03-03T09:44:04;21.77;;;6.73;;
1224;SDS011;602;48.000;7.840;2023-03-03T09:46:50;8.87;;;5.20;;
1224;SDS011;602;48.000;7.840;2023-03-03T09:49:30;8.50;;;5.47;;
1224;SDS011;602;48.000;7.840;2023-03-03T09:52:02;22.43;;;6.80;;
1224;SDS011;602;48.000;7.840;2023-03-03T09:54:48;13.93;;;5.20;;
1224;SDS011;602;48.000;7.840;2023-03-03T09:57:23;13.07;;;4.50;;
1224;SDS011;602;48.000;7.840;2023-03-03T10:00:02;11.63;;;6.03;;
1224;SDS011;602;48.000;7.840;2023-03-03T10:02:43;10.30;;;6.57;;
1224;SDS011;602;48.000;7.840;2023-03-03T10:05:23;12.73;;;6.40;;
1224;SDS011;602;48.000;7.840;2023-03-03T10:08:02;26.27;;;6.87;;
1224;SDS011;602;48.000;7.840;2023-03-03T10:10:46;17.17;;;6.50;;
1224;SDS011;602;48.000;7.840;2023-03-03T10:13:21;9.03;;;5.00;;
1224;SDS011;602;48.000;7.840;2023-03-03T10:16:01;12.40;;;8.37;;
1224;SDS011;602;48.000;7.840;2023-03-03T10:18:41;13.13;;;7.20;;
1224;SDS011;602;48.000;7.840;2023-03-03T10:21:14;19.17;;;8.30;;
1224;SDS011;602;48.000;7.840;2023-03-03T10:23:52;13.17;;;6.47;;
1224;SDS011;602;48.000;7.840;2023-03-03T10:26:37;11.87;;;7.27;;
1224;SDS011;602;48.000;7.840;2023-03-03T10:29:16;18.67;;;7.80;;
1224;SDS011;602;48.000;7.840;2023-03-03T10:32:08;21.73;;;6.73;;
1224;SDS011;602;48.000;7.840;2023-03-03T10:37:57;9.77;;;7.00;;
1224;SDS011;602;48.000;7.840;2023-03-03T10:40:36;17.77;;;9.33;;
1224;SDS011;602;48.000;7.840;2023-03-03T10:43:13;13.40;;;8.27;;
1224;SDS011;602;48.000;7.840;2023-03-03T10:45:57;12.97;;;7.00;;
1224;SDS011;602;48.000;7.840;2023-03-03T10:48:41;13.47;;;7.70;;
1224;SDS011;602;48.000;7.840;2023-03-03T10:51:32;17.97;;;9.53;;
1224;SDS011;602;48.000;7.840;2023-03-03T10:54:13;13.30;;;8.10;;
1224;SDS011;602;48.000;7.840;2023-03-03T10:56:55;12.80;;;7.60;;
1224;SDS011;602;48.000;7.840;2023-03-03T10:59:35;17.17;;;7.43;;
1224;SDS011;602;48.000;7.840;2023-03-03T11:02:11;10.13;;;6.93;;
1224;SDS011;602;48.000;7.840;2023-03-03T11:04:56;17.90;;;10.23;;
1224;SDS011;602;48.000;7.840;2023-03-03T11:07:32;19.00;;;10.73;;
1224;SDS011;602;48.000;7.840;2023-03-03T11:10:10;14.67;;;7.73;;
1224;SDS011;602;48.000;7.840;2023-03-03T11:12:46;21.57;;;8.13;;
1224;SDS011;602;48.000;7.840;2023-03-03T11:15:37;18.27;;;10.13;;
1224;SDS011;602;48.000;7.840;2023-03-03T11:18:20;15.13;;;9.60;;
1224;SDS011;602;48.000;7.840;2023-03-03T11:20:55;17.63;;;8.10;;
1224;SDS011;602;48.000;7.840;2023-03-03T11:23:37;20.50;;;9.70;;
1224;SDS011;602;48.000;7.840;2023-03-03T11:26:27;9.70;;;7.73;;
1224;SDS011;602;48.000;7.840;2023-03-03T11:29:17;16.70;;;10.00;;
1224;SDS011;602;48.000;7.840;2023-03-03T11:32:06;16.77;;;9.77;;
1224;SDS011;602;48.000;7.840;2023-03-03T11:34:53;13.33;;;8.20;;
1224;SDS011;602;48.000;7.840;2023-03-03T11:37:28;17.53;;;10.73;;
1224;SDS011;602;48.000;7.840;2023-03-03T11:40:06;18.47;;;9.87;;
1224;SDS011;602;48.000;7.840;2023-03-03T11:42:41;14.50;;;9.87;;
1224;SDS011;602;48.000;7.840;2023-03-03T11:45:16;15.93;;;9.90;;
1224;SDS011;602;48.000;7.840;2023-03-03T11:47:46;20.40;;;9.27;;
1224;SDS011;602;48.000;7.840;2023-03-03T11:50:21;17.67;;;11.20;;
1224;SDS011;602;48.000;7.840;2023-03-03T11:52:53;22.07;;;11.37;;
1224;SDS011;602;48.000;7.840;2023-03-03T11:55:29;13.37;;;10.67;;
1224;SDS011;602;48.000;7.840;2023-03-03T11:58:03;28.73;;;12.30;;
1224;SDS011;602;48.000;7.840;2023-03-03T12:00:38;25.90;;;13.57;;
1224;SDS011;602;48.000;7.840;2023-03-03T12:03:14;22.60;;;11.90;;
1224;SDS011;602;48.000;7.840;2023-03-03T12:05:49;16.60;;;11.10;;
1224;SDS011;602;48.000;7.840;2023-03-03T12:08:24;21.40;;;11.13;;
1224;SDS011;602;48.000;7.840;2023-03-03T12:10:59;18.20;;;11.07;;
1224;SDS011;602;48.000;7.840;2023-03-03T12:13:35;19.03;;;11.10;;
1224;SDS011;602;48.000;7.840;2023-03-03T12:16:14;14.07;;;9.23;;
1224;SDS011;602;48.000;7.840;2023-03-03T12:18:54;12.80;;;8.97;;
1224;SDS011;602;48.000;7.840;2023-03-03T12:21:33;20.37;;;11.87;;
1224;SDS011;602;48.000;7.840;2023-03-03T12:24:19;22.80;;;11.57;;
1224;SDS011;602;48.000;7.840;2023-03-03T12:27:08;16.83;;;9.70;;
1224;SDS011;602;48.000;7.840;2023-03-03T12:29:40;18.57;;;9.70;;
1224;SDS011;602;48.000;7.840;2023-03-03T12:32:18;18.47;;;10.77;;
1224;SDS011;602;48.000;7.840;2023-03-03T12:34:56;18.53;;;11.07;;
1224;SDS011;602;48.000;7.840;2023-03-03T12:37:41;19.63;;;9.30;;
1224;SDS011;602;48.000;7.840;2023-03-03T12:40:19;19.87;;;12.63;;
1224;SDS011;602;48.000;7.840;2023-03-03T12:42:54;17.83;;;10.70;;
1224;SDS011;602;48.000;7.840;2023-03-03T12:45:42;22.17;;;11.83;;
1224;SDS011;602;48.000;7.840;2023-03-03T12:48:15;17.50;;;10.07;;
1224;SDS011;602;48.000;7.840;2023-03-03T12:50:49;19.00;;;12.40;;
1224;SDS011;602;48.000;7.840;2023-03-03T12:53:28;21.17;;;13.20;;
1224;SDS011;602;48.000;7.840;2023-03-03T12:56:08;15.83;;;9.97;;
1224;SDS011;602;48.000;7.840;2023-03-03T12:58:41;13.57;;;9.07;;
1224;SDS011;602;48.000;7.840;2023-03-03T13:01:17;18.60;;;12.43;;
1224;SDS011;602;48.000;7.840;2023-03-03T13:03:55;15.33;;;9.73;;
1224;SDS011;602;48.000;7.840;2023-03-03T13:06:31;15.73;;;11.00;;
1224;SDS011;602;48.000;7.840;2023-03-03T13:09:10;14.77;;;9.90;;
1224;SDS011;602;48.000;7.840;2023-03-03T13:11:48;19.57;;;12.63;;
1224;SDS011;602;48.000;7.840;2023-03-03T13:14:30;15.40;;;11.00;;
1224;SDS011;602;48.000;7.840;2023-03-03T13:17:04;23.47;;;12.13;;
1224;SDS011;602;48.000;7.840;2023-03-03T13:19:44;17.07;;;9.90;;
1224;SDS011;602;48.000;7.840;2023-03-03T13:22:20;26.57;;;13.67;;
1224;SDS011;602;48.000;7.840;2023-03-03T13:25:02;16.90;;;12.47;;
1224;SDS011;602;48.000;7.840;2023-03-03T13:27:45;18.80;;;12.00;;
1224;SDS011;602;48.000;7.840;2023-03-03T13:30:16;19.30;;;12.30;;
1224;SDS011;602;48.000;7.840;2023-03-03T13:32:48;20.07;;;12.07;;
1224;SDS011;602;48.000;7.840;2023-03-03T13:35:23;22.30;;;12.73;;
1224;SDS011;602;48.000;7.840;2023-03-03T13:37:58;16.03;;;11.60;;
1224;SDS011;602;48.000;7.840;2023-03-03T13:40:30;23.40;;;12.60;;
1224;SDS011;602;48.000;7.840;2023-03-03T13:43:07;19.50;;;12.83;;
1224;SDS011;602;48.000;7.840;2023-03-03T13:45:43;20.73;;;11.40;;
1224;SDS011;602;48.000;7.840;2023-03-03T13:48:42;13.53;;;10.87;;
1224;SDS011;602;48.000;7.840;2023-03-03T13:51:29;18.03;;;11.10;;
1224;SDS011;602;48.000;7.840;2023-03-03T13:54:08;23.90;;;11.10;;
1224;SDS011;602;48.000;7.840;2023-03-03T13:56:46;17.27;;;11.77;;
1224;SDS011;602;48.000;7.840;2023-03-03T13:59:32;18.00;;;11.03;;
1224;SDS011;602;48.000;7.840;2023-03-03T14:02:10;18.17;;;12.67;;
1224;SDS011;602;48.000;7.840;2023-03-03T14:04:53;17.37;;;11.20;;
1224;SDS011;602;48.000;7.840;2023-03-03T14:07:26;14.30;;;10.43;;
1224;SDS011;602;48.000;7.840;2023-03-03T14:10:01;21.97;;;11.70;;
1224;SDS011;602;48.000;7.840;2023-03-03T14:12:36;17.93;;;9.73;;
1224;SDS011;602;48.000;7.840;2023-03-03T14:15:10;18.43;;;11.27;;
1224;SDS011;602;48.000;7.840;2023-03-03T14:17:51;20.30;;;12.40;;
1224;SDS011;602;48.000;7.840;2023-03-03T14:20:25;17.50;;;11.10;;
1224;SDS011;602;48.000;7.840;2023-03-03T14:22:55;23.33;;;13.77;;
1224;SDS011;602;48.000;7.840;2023-03-03T14:25:26;18.57;;;12.10;;
1224;SDS011;602;48.000;7.840;2023-03-03T14:28:20;14.50;;;9.93;;
1224;SDS011;602;48.000;7.840;2023-03-03T14:30:48;18.50;;;11.10;;
1224;SDS011;602;48.000;7.840;2023-03-03T14:33:19;13.40;;;11.10;;
1224;SDS011;602;48.000;7.840;2023-03-03T14:35:51;20.37;;;12.37;;
1224;SDS011;602;48.000;7.840;2023-03-03T14:38:44;17.73;;;10.77;;
1224;SDS011;602;48.000;7.840;2023-03-03T14:41:18;24.03;;;14.37;;
1224;SDS011;602;48.000;7.840;2023-03-03T14:43:55;27.97;;;14.47;;
1224;SDS011;602;48.000;7.840;2023-03-03T14:46:37;18.67;;;11.40;;
1224;SDS011;602;48.000;7.840;2023-03-03T14:49:10;18.77;;;13.43;;
1224;SDS011;602;48.000;7.840;2023-03-03T14:51:41;18.87;;;11.87;;
1224;SDS011;602;48.000;7.840;2023-03-03T14:54:13;17.67;;;11.80;;
1224;SDS011;602;48.000;7.840;2023-03-03T14:59:38;18.37;;;11.97;;
1224;SDS011;602;48.000;7.840;2023-03-03T15:05:19;13.57;;;9.90;;
1224;SDS011;602;48.000;7.840;2023-03-03T15:07:49;22.07;;;12.03;;
1224;SDS011;602;48.000;7.840;2023-03-03T15:10:32;19.00;;;11.30;;
1224;SDS011;602;48.000;7.840;2023-03-03T15:13:11;17.60;;;11.10;;
1224;SDS011;602;48.000;7.840;2023-03-03T15:16:00;16.60;;;9.70;;
1224;SDS011;602;48.000;7.840;2023-03-03T15:18:30;16.40;;;11.80;;
1224;SDS011;602;48.000;7.840;2023-03-03T15:20:59;17.00;;;9.17;;
1224;SDS011;602;48.000;7.840;2023-03-03T15:23:38;20.80;;;11.37;;
1224;SDS011;602;48.000;7.840;2023-03-03T15:26:14;19.87;;;11.57;;
1224;SDS011;602;48.000;7.840;2023-03-03T15:28:52;21.37;;;11.93;;
1224;SDS011;602;48.000;7.840;2023-03-03T15:31:27;21.67;;;11.00;;
1224;SDS011;602;48.000;7.840;2023-03-03T15:34:05;22.53;;;12.40;;
1224;SDS011;602;48.000;7.840;2023-03-03T15:36:49;23.27;;;10.63;;
1224;SDS011;602;48.000;7.840;2023-03-03T15:39:23;18.17;;;11.20;;
1224;SDS011;602;48.000;7.840;2023-03-03T15:41:59;15.93;;;11.00;;
1224;SDS011;602;48.000;7.840;2023-03-03T15:44:35;19.90;;;10.30;;
1224;SDS011;602;48.000;7.840;2023-03-03T15:47:36;15.27;;;11.00;;
1224;SDS011;602;48.000;7.840;2023-03-03T15:50:27;14.97;;;12.07;;
1224;SDS011;602;48.000;7.840;2023-03-03T15:53:11;14.37;;;10.10;;
1224;SDS011;602;48.000;7.840;2023-03-03T15:56:00;15.50;;;10.20;;
1224;SDS011;602;48.000;7.840;2023-03-03T16:01:50;16.87;;;10.60;;
1224;SDS011;602;48.000;7.840;2023-03-03T16:04:27;22.47;;;15.03;;
1224;SDS011;602;48.000;7.840;2023-03-03T16:06:59;16.53;;;11.43;;
1224;SDS011;602;48.000;7.840;2023-03-03T16:09:37;26.90;;;14.40;;
1224;SDS011;602;48.000;7.840;2023-03-03T16:12:17;14.83;;;11.20;;
1224;SDS011;602;48.000;7.840;2023-03-03T16:14:53;19.23;;;14.27;;
1224;SDS011;602;48.000;7.840;2023-03-03T16:17:53;14.10;;;11.37;;
1224;SDS011;602;48.000;7.840;2023-03-03T16:20:26;12.77;;;10.10;;
1224;SDS011;602;48.000;7.840;2023-03-03T16:23:12;11.70;;;10.50;;